sensor_id;sensor_type;location;lat;lon;timestamp;pressure;altitude;pressure_sealevel;temperature;humidity
11172;BME280;5642;50.830;12.082;2023-04-29T00:00:56;98875.00;;;14.01;45.06
11172;BME280;5642;50.830;12.082;2023-04-29T00:03:23;98863.22;;;13.92;45.13
11172;BME280;5642;50.830;12.082;2023-04-29T00:05:49;98867.34;;;13.81;45.28
11172;BME280;5642;50.830;12.082;2023-04-29T00:08:15;98870.56;;;13.70;45.27
11172;BME280;5642;50.830;12.082;2023-04-29T00:10:41;98858.00;;;13.58;45.41
11172;BME280;5642;50.830;12.082;2023-04-29T00:13:08;98824.41;;;13.30;45.50
11172;BME280;5642;50.830;12.082;2023-04-29T00:15:35;98865.69;;;13.45;45.43
11172;BME280;5642;50.830;12.082;2023-04-29T00:18:02;98854.91;;;13.34;45.60
11172;BME280;5642;50.830;12.082;2023-04-29T00:20:28;98868.91;;;13.35;45.63
11172;BME280;5642;50.830;12.082;2023-04-29T00:22:54;98864.97;;;13.26;45.37
11172;BME280;5642;50.830;12.082;2023-04-29T00:25:22;98866.81;;;13.24;45.41
11172;BME280;5642;50.830;12.082;2023-04-29T00:27:47;98850.00;;;13.09;45.77
11172;BME280;5642;50.830;12.082;2023-04-29T00:30:13;98870.03;;;13.12;45.83
11172;BME280;5642;50.830;12.082;2023-04-29T00:32:40;98873.72;;;13.08;45.67
11172;BME280;5642;50.830;12.082;2023-04-29T00:35:06;98878.28;;;13.04;45.93
11172;BME280;5642;50.830;12.082;2023-04-29T00:37:32;98870.84;;;12.95;45.70
11172;BME280;5642;50.830;12.082;2023-04-29T00:39:59;98881.06;;;13.01;45.93
11172;BME280;5642;50.830;12.082;2023-04-29T00:42:26;98893.84;;;13.09;45.84
11172;BME280;5642;50.830;12.082;2023-04-29T00:44:52;98881.19;;;13.17;45.66
11172;BME280;5642;50.830;12.082;2023-04-29T00:47:19;98881.59;;;13.26;45.75
11172;BME280;5642;50.830;12.082;2023-04-29T00:49:46;98878.41;;;13.37;45.57
11172;BME280;5642;50.830;12.082;2023-04-29T00:52:12;98873.59;;;13.45;45.69
11172;BME280;5642;50.830;12.082;2023-04-29T00:54:39;98881.28;;;13.50;45.57
11172;BME280;5642;50.830;12.082;2023-04-29T00:57:06;98874.91;;;13.54;45.47
11172;BME280;5642;50.830;12.082;2023-04-29T00:59:32;98888.53;;;13.62;45.27
11172;BME280;5642;50.830;12.082;2023-04-29T01:02:01;98885.63;;;13.66;45.41
11172;BME280;5642;50.830;12.082;2023-04-29T01:04:29;98888.19;;;13.68;45.45
11172;BME280;5642;50.830;12.082;2023-04-29T01:07:14;98888.06;;;13.71;45.57
11172;BME280;5642;50.830;12.082;2023-04-29T01:12:20;98892.13;;;13.77;45.77
11172;BME280;5642;50.830;12.082;2023-04-29T01:17:38;98885.84;;;13.79;45.75
11172;BME280;5642;50.830;12.082;2023-04-29T01:20:08;98893.50;;;13.84;45.89
11172;BME280;5642;50.830;12.082;2023-04-29T01:22:35;98889.94;;;13.85;46.02
11172;BME280;5642;50.830;12.082;2023-04-29T01:25:05;98902.78;;;13.91;46.08
11172;BME280;5642;50.830;12.082;2023-04-29T01:27:56;98900.69;;;13.97;46.02
11172;BME280;5642;50.830;12.082;2023-04-29T01:30:32;98901.69;;;13.95;45.90
11172;BME280;5642;50.830;12.082;2023-04-29T01:41:26;98906.53;;;14.02;46.04
11172;BME280;5642;50.830;12.082;2023-04-29T01:43:57;98907.97;;;14.08;45.81
11172;BME280;5642;50.830;12.082;2023-04-29T01:46:27;98911.91;;;14.17;45.84
11172;BME280;5642;50.830;12.082;2023-04-29T01:48:53;98904.09;;;14.15;45.92
11172;BME280;5642;50.830;12.082;2023-04-29T01:51:25;98908.28;;;14.19;46.13
11172;BME280;5642;50.830;12.082;2023-04-29T01:53:52;98914.41;;;14.20;46.17
11172;BME280;5642;50.830;12.082;2023-04-29T01:56:18;98911.59;;;14.23;46.19
11172;BME280;5642;50.830;12.082;2023-04-29T01:58:44;98906.22;;;14.24;46.12
11172;BME280;5642;50.830;12.082;2023-04-29T02:01:10;98906.81;;;14.29;46.26
11172;BME280;5642;50.830;12.082;2023-04-29T02:03:36;98915.34;;;14.34;46.24
11172;BME280;5642;50.830;12.082;2023-04-29T02:06:03;98915.13;;;14.39;46.31
11172;BME280;5642;50.830;12.082;2023-04-29T02:08:32;98912.22;;;14.43;46.11
11172;BME280;5642;50.830;12.082;2023-04-29T02:10:58;98913.00;;;14.45;46.28
11172;BME280;5642;50.830;12.082;2023-04-29T02:13:27;98919.56;;;14.54;46.31
11172;BME280;5642;50.830;12.082;2023-04-29T02:15:53;98920.81;;;14.47;46.27
11172;BME280;5642;50.830;12.082;2023-04-29T02:18:19;98925.06;;;14.49;46.31
11172;BME280;5642;50.830;12.082;2023-04-29T02:20:46;98926.88;;;14.49;46.40
11172;BME280;5642;50.830;12.082;2023-04-29T02:23:14;98924.31;;;14.47;46.13
11172;BME280;5642;50.830;12.082;2023-04-29T02:25:40;98923.69;;;14.42;46.50
11172;BME280;5642;50.830;12.082;2023-04-29T02:28:08;98915.66;;;14.28;46.61
11172;BME280;5642;50.830;12.082;2023-04-29T02:30:34;98915.66;;;14.28;46.58
11172;BME280;5642;50.830;12.082;2023-04-29T02:33:01;98927.91;;;14.29;46.57
11172;BME280;5642;50.830;12.082;2023-04-29T02:35:27;98918.56;;;14.24;46.66
11172;BME280;5642;50.830;12.082;2023-04-29T02:37:53;98925.38;;;14.28;46.64
11172;BME280;5642;50.830;12.082;2023-04-29T02:40:19;98926.38;;;14.25;46.76
11172;BME280;5642;50.830;12.082;2023-04-29T02:42:46;98929.16;;;14.22;46.75
11172;BME280;5642;50.830;12.082;2023-04-29T02:45:12;98916.50;;;14.13;46.82
11172;BME280;5642;50.830;12.082;2023-04-29T02:47:38;98890.16;;;13.97;46.83
11172;BME280;5642;50.830;12.082;2023-04-29T02:50:05;98922.44;;;14.17;46.86
11172;BME280;5642;50.830;12.082;2023-04-29T02:52:31;98916.59;;;14.11;46.87
11172;BME280;5642;50.830;12.082;2023-04-29T02:54:57;98915.56;;;14.14;46.89
11172;BME280;5642;50.830;12.082;2023-04-29T02:57:31;98918.38;;;14.11;47.16
11172;BME280;5642;50.830;12.082;2023-04-29T02:59:58;98926.19;;;14.13;47.01
11172;BME280;5642;50.830;12.082;2023-04-29T03:02:24;98926.94;;;14.15;47.23
11172;BME280;5642;50.830;12.082;2023-04-29T03:05:00;98926.94;;;14.15;47.24
11172;BME280;5642;50.830;12.082;2023-04-29T03:07:26;98925.28;;;14.14;47.27
11172;BME280;5642;50.830;12.082;2023-04-29T03:09:53;98914.63;;;14.15;47.32
11172;BME280;5642;50.830;12.082;2023-04-29T03:12:20;98923.16;;;14.20;47.28
11172;BME280;5642;50.830;12.082;2023-04-29T03:14:46;98921.38;;;14.21;47.25
11172;BME280;5642;50.830;12.082;2023-04-29T03:17:13;98925.69;;;14.22;47.45
11172;BME280;5642;50.830;12.082;2023-04-29T03:19:42;98906.66;;;14.17;47.51
11172;BME280;5642;50.830;12.082;2023-04-29T03:22:08;98915.75;;;14.11;47.36
11172;BME280;5642;50.830;12.082;2023-04-29T03:24:39;98921.66;;;14.15;47.52
11172;BME280;5642;50.830;12.082;2023-04-29T03:27:07;98915.47;;;14.16;47.69
11172;BME280;5642;50.830;12.082;2023-04-29T03:29:33;98918.13;;;14.16;47.60
11172;BME280;5642;50.830;12.082;2023-04-29T03:31:59;98914.53;;;14.17;47.73
11172;BME280;5642;50.830;12.082;2023-04-29T03:35:01;98911.66;;;14.21;47.55
11172;BME280;5642;50.830;12.082;2023-04-29T03:37:28;98904.88;;;14.17;47.65
11172;BME280;5642;50.830;12.082;2023-04-29T03:39:53;98870.09;;;13.95;47.51
11172;BME280;5642;50.830;12.082;2023-04-29T03:42:26;98907.50;;;14.17;47.31
11172;BME280;5642;50.830;12.082;2023-04-29T03:44:52;98907.34;;;14.20;47.63
11172;BME280;5642;50.830;12.082;2023-04-29T03:47:18;98913.28;;;14.24;47.74
11172;BME280;5642;50.830;12.082;2023-04-29T03:49:45;98913.22;;;14.25;47.53
11172;BME280;5642;50.830;12.082;2023-04-29T03:52:11;98880.56;;;14.12;47.58
11172;BME280;5642;50.830;12.082;2023-04-29T03:54:37;98905.81;;;14.32;47.58
11172;BME280;5642;50.830;12.082;2023-04-29T03:57:03;98906.59;;;14.34;47.78
11172;BME280;5642;50.830;12.082;2023-04-29T03:59:29;98915.16;;;14.37;47.74
11172;BME280;5642;50.830;12.082;2023-04-29T04:01:55;98901.22;;;14.35;47.72
11172;BME280;5642;50.830;12.082;2023-04-29T04:04:23;98919.13;;;14.46;47.65
11172;BME280;5642;50.830;12.082;2023-04-29T04:06:49;98916.63;;;14.43;47.61
11172;BME280;5642;50.830;12.082;2023-04-29T04:09:17;98919.19;;;14.44;47.86
11172;BME280;5642;50.830;12.082;2023-04-29T04:11:43;98924.91;;;14.53;47.76
11172;BME280;5642;50.830;12.082;2023-04-29T04:14:10;98928.38;;;14.53;47.75
11172;BME280;5642;50.830;12.082;2023-04-29T04:16:36;98915.56;;;14.47;47.84
11172;BME280;5642;50.830;12.082;2023-04-29T04:19:25;98935.03;;;14.60;47.68
11172;BME280;5642;50.830;12.082;2023-04-29T04:21:51;98920.41;;;14.55;47.90
11172;BME280;5642;50.830;12.082;2023-04-29T04:24:18;98939.94;;;14.66;47.78
11172;BME280;5642;50.830;12.082;2023-04-29T04:27:01;98936.38;;;14.67;47.74
11172;BME280;5642;50.830;12.082;2023-04-29T04:29:27;98922.63;;;14.62;47.80
11172;BME280;5642;50.830;12.082;2023-04-29T04:31:53;98938.41;;;14.78;47.72
11172;BME280;5642;50.830;12.082;2023-04-29T04:34:32;98947.44;;;14.89;47.86
11172;BME280;5642;50.830;12.082;2023-04-29T04:36:58;98945.66;;;14.90;47.70
11172;BME280;5642;50.830;12.082;2023-04-29T04:39:24;98951.50;;;14.95;47.76
11172;BME280;5642;50.830;12.082;2023-04-29T04:41:51;98945.97;;;15.00;47.97
11172;BME280;5642;50.830;12.082;2023-04-29T04:44:17;98953.56;;;15.06;47.75
11172;BME280;5642;50.830;12.082;2023-04-29T04:46:43;98958.34;;;15.13;47.87
11172;BME280;5642;50.830;12.082;2023-04-29T04:49:16;98962.09;;;15.25;47.75
11172;BME280;5642;50.830;12.082;2023-04-29T04:51:45;98959.03;;;15.33;47.70
11172;BME280;5642;50.830;12.082;2023-04-29T04:54:11;98951.03;;;15.34;47.67
11172;BME280;5642;50.830;12.082;2023-04-29T04:56:43;98960.56;;;15.51;47.53
11172;BME280;5642;50.830;12.082;2023-04-29T04:59:10;98955.16;;;15.54;47.57
11172;BME280;5642;50.830;12.082;2023-04-29T05:01:35;98952.94;;;15.62;47.44
11172;BME280;5642;50.830;12.082;2023-04-29T05:04:21;98957.75;;;15.70;47.48
11172;BME280;5642;50.830;12.082;2023-04-29T05:06:47;98951.88;;;15.64;47.52
11172;BME280;5642;50.830;12.082;2023-04-29T05:09:13;98944.81;;;15.65;47.61
11172;BME280;5642;50.830;12.082;2023-04-29T05:11:49;98962.28;;;15.82;47.76
11172;BME280;5642;50.830;12.082;2023-04-29T05:14:15;98958.63;;;15.84;47.70
11172;BME280;5642;50.830;12.082;2023-04-29T05:16:42;98967.88;;;15.91;47.67
11172;BME280;5642;50.830;12.082;2023-04-29T05:19:09;98946.00;;;15.89;47.77
11172;BME280;5642;50.830;12.082;2023-04-29T05:21:36;98970.88;;;15.99;47.66
11172;BME280;5642;50.830;12.082;2023-04-29T05:24:02;98967.31;;;16.00;47.59
11172;BME280;5642;50.830;12.082;2023-04-29T05:26:52;98971.28;;;16.08;47.61
11172;BME280;5642;50.830;12.082;2023-04-29T05:29:18;98976.31;;;16.12;47.70
11172;BME280;5642;50.830;12.082;2023-04-29T05:31:44;98965.34;;;16.18;47.71
11172;BME280;5642;50.830;12.082;2023-04-29T05:34:11;98976.56;;;16.36;47.70
11172;BME280;5642;50.830;12.082;2023-04-29T05:36:37;98979.03;;;16.53;47.42
11172;BME280;5642;50.830;12.082;2023-04-29T05:39:03;98977.25;;;16.68;47.14
11172;BME280;5642;50.830;12.082;2023-04-29T05:41:29;98980.13;;;16.92;47.32
11172;BME280;5642;50.830;12.082;2023-04-29T05:43:55;98985.28;;;17.07;47.19
11172;BME280;5642;50.830;12.082;2023-04-29T05:46:21;98988.31;;;17.28;46.88
11172;BME280;5642;50.830;12.082;2023-04-29T05:49:12;98993.38;;;17.45;46.96
11172;BME280;5642;50.830;12.082;2023-04-29T05:51:38;98997.22;;;17.54;46.98
11172;BME280;5642;50.830;12.082;2023-04-29T05:54:05;98975.81;;;17.57;46.87
11172;BME280;5642;50.830;12.082;2023-04-29T05:56:31;98995.06;;;17.73;46.89
11172;BME280;5642;50.830;12.082;2023-04-29T05:58:57;98997.38;;;17.78;47.04
11172;BME280;5642;50.830;12.082;2023-04-29T06:01:23;99000.78;;;17.80;46.91
11172;BME280;5642;50.830;12.082;2023-04-29T06:03:49;98990.94;;;17.82;46.79
11172;BME280;5642;50.830;12.082;2023-04-29T06:06:15;99000.19;;;17.89;47.11
11172;BME280;5642;50.830;12.082;2023-04-29T06:08:42;98992.31;;;17.87;46.87
11172;BME280;5642;50.830;12.082;2023-04-29T06:11:08;99004.53;;;18.03;46.98
11172;BME280;5642;50.830;12.082;2023-04-29T06:13:34;99003.25;;;18.08;46.90
11172;BME280;5642;50.830;12.082;2023-04-29T06:16:00;98996.78;;;18.12;46.96
11172;BME280;5642;50.830;12.082;2023-04-29T06:18:27;99001.34;;;18.23;46.78
11172;BME280;5642;50.830;12.082;2023-04-29T06:20:55;99003.81;;;18.26;46.87
11172;BME280;5642;50.830;12.082;2023-04-29T06:23:21;99013.75;;;18.35;46.86
11172;BME280;5642;50.830;12.082;2023-04-29T06:25:47;99015.13;;;18.40;46.79
11172;BME280;5642;50.830;12.082;2023-04-29T06:28:13;99014.28;;;18.53;46.79
11172;BME280;5642;50.830;12.082;2023-04-29T06:30:39;99025.25;;;18.61;46.70
11172;BME280;5642;50.830;12.082;2023-04-29T06:33:06;99025.66;;;18.67;46.73
11172;BME280;5642;50.830;12.082;2023-04-29T06:35:32;99016.84;;;18.67;46.47
11172;BME280;5642;50.830;12.082;2023-04-29T06:37:58;99022.78;;;18.70;46.63
11172;BME280;5642;50.830;12.082;2023-04-29T06:40:24;99030.53;;;18.73;46.64
11172;BME280;5642;50.830;12.082;2023-04-29T06:42:51;99023.38;;;18.87;46.62
11172;BME280;5642;50.830;12.082;2023-04-29T06:45:17;99020.53;;;19.13;46.46
11172;BME280;5642;50.830;12.082;2023-04-29T06:47:44;99011.97;;;19.81;45.54
11172;BME280;5642;50.830;12.082;2023-04-29T06:50:11;99019.03;;;20.62;45.03
11172;BME280;5642;50.830;12.082;2023-04-29T06:52:37;99023.59;;;21.16;44.49
11172;BME280;5642;50.830;12.082;2023-04-29T06:55:03;99027.25;;;21.58;44.16
11172;BME280;5642;50.830;12.082;2023-04-29T06:57:30;99029.63;;;21.72;44.27
11172;BME280;5642;50.830;12.082;2023-04-29T06:59:57;99028.97;;;21.79;43.86
11172;BME280;5642;50.830;12.082;2023-04-29T07:02:23;99026.78;;;21.84;44.23
11172;BME280;5642;50.830;12.082;2023-04-29T07:04:49;99034.44;;;21.78;44.12
11172;BME280;5642;50.830;12.082;2023-04-29T07:07:15;99032.19;;;21.62;44.42
11172;BME280;5642;50.830;12.082;2023-04-29T07:09:44;99045.22;;;21.44;44.64
11172;BME280;5642;50.830;12.082;2023-04-29T07:12:10;99043.69;;;21.20;44.65
11172;BME280;5642;50.830;12.082;2023-04-29T07:14:36;99050.38;;;21.03;45.20
11172;BME280;5642;50.830;12.082;2023-04-29T07:17:02;99041.28;;;20.83;45.03
11172;BME280;5642;50.830;12.082;2023-04-29T07:19:31;99050.34;;;20.69;45.16
11172;BME280;5642;50.830;12.082;2023-04-29T07:21:57;99046.22;;;20.54;45.48
11172;BME280;5642;50.830;12.082;2023-04-29T07:24:35;99062.31;;;20.42;45.54
11172;BME280;5642;50.830;12.082;2023-04-29T07:27:01;99069.97;;;20.22;45.48
11172;BME280;5642;50.830;12.082;2023-04-29T07:29:27;99067.75;;;20.05;45.76
11172;BME280;5642;50.830;12.082;2023-04-29T07:31:53;99071.13;;;19.96;45.70
11172;BME280;5642;50.830;12.082;2023-04-29T07:34:19;99069.88;;;19.89;45.51
11172;BME280;5642;50.830;12.082;2023-04-29T07:36:45;99076.38;;;19.85;45.50
11172;BME280;5642;50.830;12.082;2023-04-29T07:39:17;99076.72;;;19.80;45.64
11172;BME280;5642;50.830;12.082;2023-04-29T07:41:43;99080.28;;;19.68;45.54
11172;BME280;5642;50.830;12.082;2023-04-29T07:44:09;99090.84;;;19.57;45.89
11172;BME280;5642;50.830;12.082;2023-04-29T07:46:51;99084.53;;;19.34;45.65
11172;BME280;5642;50.830;12.082;2023-04-29T07:49:18;99092.53;;;19.22;45.79
11172;BME280;5642;50.830;12.082;2023-04-29T07:51:47;99100.53;;;19.09;45.95
11172;BME280;5642;50.830;12.082;2023-04-29T07:54:18;99105.44;;;19.02;46.12
11172;BME280;5642;50.830;12.082;2023-04-29T07:56:45;99109.38;;;18.97;45.97
11172;BME280;5642;50.830;12.082;2023-04-29T07:59:11;99104.69;;;18.88;46.08
11172;BME280;5642;50.830;12.082;2023-04-29T08:01:37;99111.56;;;18.90;45.83
11172;BME280;5642;50.830;12.082;2023-04-29T08:04:03;99110.31;;;18.83;45.88
11172;BME280;5642;50.830;12.082;2023-04-29T08:06:29;99120.63;;;18.88;45.78
11172;BME280;5642;50.830;12.082;2023-04-29T08:08:55;99105.25;;;18.80;45.97
11172;BME280;5642;50.830;12.082;2023-04-29T08:11:21;99130.91;;;18.92;45.76
11172;BME280;5642;50.830;12.082;2023-04-29T08:13:49;99124.72;;;19.04;45.73
11172;BME280;5642;50.830;12.082;2023-04-29T08:16:15;99132.16;;;19.25;45.69
11172;BME280;5642;50.830;12.082;2023-04-29T08:18:41;99121.59;;;19.36;45.57
11172;BME280;5642;50.830;12.082;2023-04-29T08:21:07;99121.69;;;19.47;45.71
11172;BME280;5642;50.830;12.082;2023-04-29T08:24:07;99129.69;;;19.71;45.38
11172;BME280;5642;50.830;12.082;2023-04-29T08:26:33;99118.97;;;19.96;45.39
11172;BME280;5642;50.830;12.082;2023-04-29T08:28:59;99133.53;;;20.38;45.11
11172;BME280;5642;50.830;12.082;2023-04-29T08:31:26;99125.47;;;20.62;44.55
11172;BME280;5642;50.830;12.082;2023-04-29T08:33:52;99136.03;;;20.86;44.70
11172;BME280;5642;50.830;12.082;2023-04-29T08:36:18;99138.94;;;21.05;44.46
11172;BME280;5642;50.830;12.082;2023-04-29T08:38:50;99135.72;;;21.24;44.16
11172;BME280;5642;50.830;12.082;2023-04-29T08:41:17;99137.53;;;21.34;44.29
11172;BME280;5642;50.830;12.082;2023-04-29T08:43:43;99130.63;;;21.43;44.42
11172;BME280;5642;50.830;12.082;2023-04-29T08:46:37;99142.72;;;21.58;44.12
11172;BME280;5642;50.830;12.082;2023-04-29T08:49:03;99144.75;;;21.66;44.09
11172;BME280;5642;50.830;12.082;2023-04-29T08:51:29;99138.66;;;21.75;43.79
11172;BME280;5642;50.830;12.082;2023-04-29T08:53:57;99143.00;;;21.76;43.90
11172;BME280;5642;50.830;12.082;2023-04-29T08:56:24;99144.72;;;21.77;43.80
11172;BME280;5642;50.830;12.082;2023-04-29T08:58:52;99148.56;;;21.84;43.26
11172;BME280;5642;50.830;12.082;2023-04-29T09:01:28;99155.84;;;21.82;43.44
11172;BME280;5642;50.830;12.082;2023-04-29T09:06:42;99162.63;;;21.97;43.51
11172;BME280;5642;50.830;12.082;2023-04-29T09:09:08;99166.31;;;22.17;43.34
11172;BME280;5642;50.830;12.082;2023-04-29T09:11:36;99165.69;;;22.45;43.08
11172;BME280;5642;50.830;12.082;2023-04-29T09:17:15;99175.75;;;23.15;42.75
11172;BME280;5642;50.830;12.082;2023-04-29T09:19:43;99158.34;;;23.30;42.93
11172;BME280;5642;50.830;12.082;2023-04-29T09:22:09;99169.94;;;23.40;42.55
11172;BME280;5642;50.830;12.082;2023-04-29T09:24:35;99178.72;;;23.52;42.39
11172;BME280;5642;50.830;12.082;2023-04-29T09:27:03;99165.38;;;23.62;42.41
11172;BME280;5642;50.830;12.082;2023-04-29T09:29:35;99174.00;;;23.75;41.99
11172;BME280;5642;50.830;12.082;2023-04-29T09:32:18;99171.66;;;23.91;42.23
11172;BME280;5642;50.830;12.082;2023-04-29T09:34:45;99177.16;;;24.09;42.21
11172;BME280;5642;50.830;12.082;2023-04-29T09:37:24;99174.53;;;24.28;41.67
11172;BME280;5642;50.830;12.082;2023-04-29T09:39:54;99180.47;;;24.41;42.01
11172;BME280;5642;50.830;12.082;2023-04-29T09:42:20;99182.69;;;24.46;42.00
11172;BME280;5642;50.830;12.082;2023-04-29T09:44:47;99153.56;;;24.43;41.83
11172;BME280;5642;50.830;12.082;2023-04-29T09:47:16;99190.44;;;24.78;41.72
11172;BME280;5642;50.830;12.082;2023-04-29T09:49:43;99188.56;;;24.88;41.40
11172;BME280;5642;50.830;12.082;2023-04-29T09:52:15;99187.03;;;24.76;41.74
11172;BME280;5642;50.830;12.082;2023-04-29T09:54:43;99196.81;;;24.57;41.73
11172;BME280;5642;50.830;12.082;2023-04-29T09:57:11;99200.63;;;24.36;41.89
11172;BME280;5642;50.830;12.082;2023-04-29T09:59:39;99201.16;;;24.20;41.71
11172;BME280;5642;50.830;12.082;2023-04-29T10:02:13;99217.31;;;24.18;41.96
11172;BME280;5642;50.830;12.082;2023-04-29T10:04:53;99211.88;;;24.30;41.58
11172;BME280;5642;50.830;12.082;2023-04-29T10:07:22;99216.94;;;24.52;41.55
11172;BME280;5642;50.830;12.082;2023-04-29T10:09:51;99197.94;;;24.65;41.29
11172;BME280;5642;50.830;12.082;2023-04-29T10:12:19;99214.81;;;24.75;41.09
11172;BME280;5642;50.830;12.082;2023-04-29T10:18:25;99216.53;;;24.56;41.51
11172;BME280;5642;50.830;12.082;2023-04-29T10:20:51;99219.34;;;24.26;41.16
11172;BME280;5642;50.830;12.082;2023-04-29T10:23:18;99220.53;;;24.03;41.51
11172;BME280;5642;50.830;12.082;2023-04-29T10:25:46;99224.13;;;23.73;41.57
11172;BME280;5642;50.830;12.082;2023-04-29T10:28:14;99226.66;;;23.44;41.45
11172;BME280;5642;50.830;12.082;2023-04-29T10:30:43;99230.13;;;23.35;41.54
11172;BME280;5642;50.830;12.082;2023-04-29T10:33:10;99233.91;;;23.32;41.53
11172;BME280;5642;50.830;12.082;2023-04-29T10:35:54;99235.53;;;23.24;41.42
11172;BME280;5642;50.830;12.082;2023-04-29T10:38:54;99252.38;;;23.15;41.61
11172;BME280;5642;50.830;12.082;2023-04-29T10:41:25;99248.53;;;23.08;41.55
11172;BME280;5642;50.830;12.082;2023-04-29T10:43:58;99246.63;;;22.98;41.65
11172;BME280;5642;50.830;12.082;2023-04-29T10:46:25;99251.06;;;22.88;41.77
11172;BME280;5642;50.830;12.082;2023-04-29T10:49:09;99260.84;;;22.78;41.78
11172;BME280;5642;50.830;12.082;2023-04-29T10:51:42;99254.19;;;22.61;41.83
11172;BME280;5642;50.830;12.082;2023-04-29T10:54:16;99258.91;;;22.37;42.04
11172;BME280;5642;50.830;12.082;2023-04-29T10:56:47;99268.78;;;22.14;42.09
11172;BME280;5642;50.830;12.082;2023-04-29T10:59:20;99268.44;;;21.97;42.18
11172;BME280;5642;50.830;12.082;2023-04-29T11:01:57;99268.94;;;21.79;41.98
11172;BME280;5642;50.830;12.082;2023-04-29T11:04:23;99284.06;;;21.68;42.16
11172;BME280;5642;50.830;12.082;2023-04-29T11:09:25;99270.00;;;21.55;42.11
11172;BME280;5642;50.830;12.082;2023-04-29T11:12:00;99281.91;;;21.51;42.15
11172;BME280;5642;50.830;12.082;2023-04-29T11:14:37;99273.75;;;21.41;42.20
11172;BME280;5642;50.830;12.082;2023-04-29T11:17:11;99277.66;;;21.37;41.77
11172;BME280;5642;50.830;12.082;2023-04-29T11:19:45;99279.81;;;21.32;41.88
11172;BME280;5642;50.830;12.082;2023-04-29T11:25:22;99302.44;;;21.26;42.13
11172;BME280;5642;50.830;12.082;2023-04-29T11:27:53;99305.84;;;21.17;42.37
11172;BME280;5642;50.830;12.082;2023-04-29T11:30:22;99302.63;;;21.12;42.22
11172;BME280;5642;50.830;12.082;2023-04-29T11:32:59;99310.22;;;20.94;42.23
11172;BME280;5642;50.830;12.082;2023-04-29T11:35:25;99323.53;;;20.70;42.21
11172;BME280;5642;50.830;12.082;2023-04-29T11:37:51;99323.03;;;20.42;42.48
11172;BME280;5642;50.830;12.082;2023-04-29T11:40:18;99324.69;;;20.06;42.28
11172;BME280;5642;50.830;12.082;2023-04-29T11:42:46;99343.34;;;19.81;42.88
11172;BME280;5642;50.830;12.082;2023-04-29T11:45:12;99344.63;;;19.50;42.92
11172;BME280;5642;50.830;12.082;2023-04-29T11:47:44;99349.78;;;19.26;43.03
11172;BME280;5642;50.830;12.082;2023-04-29T11:50:11;99348.34;;;18.95;43.12
11172;BME280;5642;50.830;12.082;2023-04-29T11:52:38;99355.19;;;18.72;43.08
11172;BME280;5642;50.830;12.082;2023-04-29T11:55:33;99360.44;;;18.60;43.04
11172;BME280;5642;50.830;12.082;2023-04-29T11:57:59;99369.34;;;18.45;43.28
11172;BME280;5642;50.830;12.082;2023-04-29T12:00:26;99359.31;;;18.35;43.36
11172;BME280;5642;50.830;12.082;2023-04-29T12:03:15;99367.97;;;18.25;43.10
11172;BME280;5642;50.830;12.082;2023-04-29T12:05:54;99379.34;;;18.13;43.32
11172;BME280;5642;50.830;12.082;2023-04-29T12:08:22;99384.16;;;18.06;43.36
11172;BME280;5642;50.830;12.082;2023-04-29T12:10:49;99387.03;;;18.03;43.48
11172;BME280;5642;50.830;12.082;2023-04-29T12:13:16;99382.13;;;17.97;43.32
11172;BME280;5642;50.830;12.082;2023-04-29T12:15:43;99387.69;;;17.92;43.33
11172;BME280;5642;50.830;12.082;2023-04-29T12:18:11;99389.00;;;17.85;43.40
11172;BME280;5642;50.830;12.082;2023-04-29T12:20:38;99389.31;;;17.81;43.25
11172;BME280;5642;50.830;12.082;2023-04-29T12:26:16;99397.16;;;17.68;43.32
11172;BME280;5642;50.830;12.082;2023-04-29T12:28:43;99400.81;;;17.66;43.28
11172;BME280;5642;50.830;12.082;2023-04-29T12:31:10;99402.53;;;17.67;43.40
11172;BME280;5642;50.830;12.082;2023-04-29T12:33:37;99408.59;;;17.69;43.27
11172;BME280;5642;50.830;12.082;2023-04-29T12:36:15;99404.81;;;17.73;43.20
11172;BME280;5642;50.830;12.082;2023-04-29T12:38:42;99407.06;;;17.79;43.33
11172;BME280;5642;50.830;12.082;2023-04-29T12:41:08;99411.91;;;17.86;43.15
11172;BME280;5642;50.830;12.082;2023-04-29T12:43:36;99414.09;;;17.94;43.18
11172;BME280;5642;50.830;12.082;2023-04-29T12:46:05;99417.59;;;18.09;42.95
11172;BME280;5642;50.830;12.082;2023-04-29T12:48:34;99417.22;;;18.15;42.91
11172;BME280;5642;50.830;12.082;2023-04-29T12:51:02;99418.34;;;18.25;42.96
11172;BME280;5642;50.830;12.082;2023-04-29T12:53:33;99420.88;;;18.40;42.80
11172;BME280;5642;50.830;12.082;2023-04-29T12:55:59;99427.31;;;18.51;42.83
11172;BME280;5642;50.830;12.082;2023-04-29T12:58:28;99430.91;;;18.64;42.75
11172;BME280;5642;50.830;12.082;2023-04-29T13:00:55;99425.47;;;18.80;42.81
11172;BME280;5642;50.830;12.082;2023-04-29T13:03:22;99424.56;;;18.93;42.60
11172;BME280;5642;50.830;12.082;2023-04-29T13:05:48;99427.16;;;19.07;42.51
11172;BME280;5642;50.830;12.082;2023-04-29T13:11:32;99417.22;;;19.11;42.51
11172;BME280;5642;50.830;12.082;2023-04-29T13:13:58;99430.19;;;19.28;42.43
11172;BME280;5642;50.830;12.082;2023-04-29T13:16:49;99421.53;;;19.39;42.08
11172;BME280;5642;50.830;12.082;2023-04-29T13:19:15;99404.78;;;19.51;42.10
11172;BME280;5642;50.830;12.082;2023-04-29T13:21:41;99412.66;;;19.78;41.92
11172;BME280;5642;50.830;12.082;2023-04-29T13:24:07;99421.91;;;19.98;41.62
11172;BME280;5642;50.830;12.082;2023-04-29T13:26:35;99413.94;;;20.10;41.76
11172;BME280;5642;50.830;12.082;2023-04-29T13:29:01;99417.63;;;20.33;41.47
11172;BME280;5642;50.830;12.082;2023-04-29T13:31:27;99420.28;;;20.46;41.46
11172;BME280;5642;50.830;12.082;2023-04-29T13:33:54;99415.66;;;20.60;41.55
11172;BME280;5642;50.830;12.082;2023-04-29T13:36:21;99414.47;;;20.64;41.79
11172;BME280;5642;50.830;12.082;2023-04-29T13:38:47;99424.19;;;20.65;41.55
11172;BME280;5642;50.830;12.082;2023-04-29T13:41:13;99426.28;;;20.60;41.31
11172;BME280;5642;50.830;12.082;2023-04-29T13:43:39;99414.94;;;20.58;41.43